Lafayette, Wisconsin
Current Conditions -  °F | °C
As of 3:56 AM on Saturday 22 Nov 2014 (Local Time) from KEAU Reporting Station
Overcast Overcast  
Wind Chill: 26°   Ceiling: 1200
Heat Index: 34°   Visibility: 8mi
Dew Point: 29°   Wind: 10mph
Humidity: 82%   Direction: 200°SSW
Pressure: 29.85"   Gusts: NA
Location:  44.9743°N, 91.4379°W
Report Text: KEAU 220956Z AUTO 20009KT 8SM OVC012 01/M02 A2985 RMK AO2 SLP119 T00111017
Loading
Personal Weather Stations






























Interactive Weather Map New forecast layout! Learn more

10-Day Weather Forecast

Advertisements
Track Severe Weather on mobile